createdAt,value
2016-02-19T00:00:26.172Z,966.29
2016-02-19T00:01:26.158Z,966.3
2016-02-19T00:02:26.161Z,966.32
2016-02-19T00:03:26.164Z,966.33
2016-02-19T00:04:26.166Z,966.36
2016-02-19T00:05:26.169Z,966.37
2016-02-19T00:06:26.157Z,966.38
2016-02-19T00:07:26.159Z,966.37
2016-02-19T00:08:26.163Z,966.32
2016-02-19T00:09:26.165Z,966.33
2016-02-19T00:10:26.168Z,966.35
2016-02-19T00:11:26.154Z,966.35
2016-02-19T00:12:26.157Z,966.4
2016-02-19T00:13:26.160Z,966.37
2016-02-19T00:14:26.146Z,966.32
2016-02-19T00:15:26.149Z,966.37
2016-02-19T00:16:26.151Z,966.33
2016-02-19T00:17:26.154Z,966.35
2016-02-19T00:18:26.142Z,966.38
2016-02-19T00:19:26.145Z,966.41
2016-02-19T00:20:26.147Z,966.42
2016-02-19T00:21:26.134Z,966.4
2016-02-19T00:22:26.137Z,966.37
2016-02-19T00:23:26.139Z,966.36
2016-02-19T00:24:26.142Z,966.41
2016-02-19T00:25:26.145Z,966.42
2016-02-19T00:26:26.147Z,966.4
2016-02-19T00:27:26.136Z,966.36
2016-02-19T00:28:26.138Z,966.37
2016-02-19T00:29:26.140Z,966.36
2016-02-19T00:30:26.131Z,966.37
2016-02-19T00:31:26.134Z,966.37
2016-02-19T00:32:26.137Z,966.36
2016-02-19T00:33:26.124Z,966.39
2016-02-19T00:34:26.126Z,966.38
2016-02-19T00:35:26.128Z,966.4
2016-02-19T00:36:26.132Z,966.4
2016-02-19T00:37:26.119Z,966.36
2016-02-19T00:38:26.121Z,966.41
2016-02-19T00:39:26.125Z,966.41
2016-02-19T00:40:26.127Z,966.44
2016-02-19T00:41:26.114Z,966.44
2016-02-19T00:42:26.117Z,966.46
2016-02-19T00:43:26.119Z,966.48
2016-02-19T00:44:26.122Z,966.49
2016-02-19T00:45:26.109Z,966.42
2016-02-19T00:46:26.111Z,966.44
2016-02-19T00:47:26.130Z,966.4
2016-02-19T00:48:26.116Z,966.4
2016-02-19T00:49:26.120Z,966.39
2016-02-19T00:50:26.107Z,966.42
2016-02-19T00:51:26.110Z,966.41
2016-02-19T00:52:26.113Z,966.38
2016-02-19T00:53:26.115Z,966.41
2016-02-19T00:54:26.118Z,966.49
2016-02-19T00:55:26.105Z,966.48
2016-02-19T00:56:26.107Z,966.47
2016-02-19T00:57:26.110Z,966.51
2016-02-19T00:58:26.113Z,966.5
2016-02-19T00:59:26.099Z,966.51
2016-02-19T01:00:26.102Z,966.54
2016-02-19T01:01:26.105Z,966.51
2016-02-19T01:02:26.092Z,966.54
2016-02-19T01:03:26.095Z,966.56
2016-02-19T01:04:26.098Z,966.57
2016-02-19T01:05:26.093Z,966.56
2016-02-19T01:06:26.096Z,966.57
2016-02-19T01:07:26.099Z,966.56
2016-02-19T01:08:26.085Z,966.61
2016-02-19T01:09:26.088Z,966.59
2016-02-19T01:10:26.091Z,966.6
2016-02-19T01:11:26.078Z,966.58
2016-02-19T01:12:26.081Z,966.6
2016-02-19T01:13:26.084Z,966.58
2016-02-19T01:14:26.087Z,966.61
2016-02-19T01:15:26.089Z,966.58
2016-02-19T01:16:26.076Z,966.63
2016-02-19T01:17:26.079Z,966.62
2016-02-19T01:18:26.081Z,966.67
2016-02-19T01:19:26.084Z,966.65
2016-02-19T01:20:26.070Z,966.69
2016-02-19T01:21:26.073Z,966.65
2016-02-19T01:22:26.077Z,966.65
2016-02-19T01:23:26.079Z,966.63
2016-02-19T01:24:26.066Z,966.66
2016-02-19T01:25:26.070Z,966.67
2016-02-19T01:26:26.072Z,966.67
2016-02-19T01:27:26.075Z,966.68
2016-02-19T01:28:26.061Z,966.68
2016-02-19T01:29:26.064Z,966.69
2016-02-19T01:30:26.067Z,966.72
2016-02-19T01:31:26.055Z,966.69
2016-02-19T01:32:26.058Z,966.72
2016-02-19T01:33:26.060Z,966.72
2016-02-19T01:34:26.062Z,966.73
2016-02-19T01:35:26.065Z,966.69
2016-02-19T01:36:26.052Z,966.73
2016-02-19T01:37:26.054Z,966.67
2016-02-19T01:38:26.057Z,966.71
2016-02-19T01:39:26.044Z,966.71
2016-02-19T01:40:26.046Z,966.68
2016-02-19T01:41:26.050Z,966.68
2016-02-19T01:42:26.052Z,966.71
2016-02-19T01:43:26.054Z,966.69
2016-02-19T01:44:26.043Z,966.72
2016-02-19T01:45:26.045Z,966.71
2016-02-19T01:46:26.048Z,966.74
2016-02-19T01:47:26.051Z,966.75
2016-02-19T01:48:26.037Z,966.7
2016-02-19T01:49:26.040Z,966.72
2016-02-19T01:50:26.043Z,966.72
2016-02-19T01:51:26.061Z,966.73
2016-02-19T01:52:26.032Z,966.72
2016-02-19T01:53:26.035Z,966.75
2016-02-19T01:54:26.038Z,966.75
2016-02-19T01:55:26.040Z,966.73
2016-02-19T01:56:26.043Z,966.73
2016-02-19T01:57:26.030Z,966.74
2016-02-19T01:58:26.033Z,966.75
2016-02-19T01:59:26.035Z,966.74
2016-02-19T02:00:26.038Z,966.75
2016-02-19T02:01:26.025Z,966.7
2016-02-19T02:02:26.027Z,966.72
2016-02-19T02:03:26.030Z,966.71
2016-02-19T02:04:26.018Z,966.7
2016-02-19T02:05:26.036Z,966.66
2016-02-19T02:06:26.023Z,966.68
2016-02-19T02:07:26.026Z,966.66
2016-02-19T02:08:26.029Z,966.66
2016-02-19T02:09:26.016Z,966.63
2016-02-19T02:10:26.018Z,966.61
2016-02-19T02:11:26.021Z,966.66
2016-02-19T02:12:26.007Z,966.67
2016-02-19T02:13:26.011Z,966.67
2016-02-19T02:14:26.013Z,966.65
2016-02-19T02:15:26.015Z,966.64
2016-02-19T02:16:26.019Z,966.65
2016-02-19T02:17:26.006Z,966.67
2016-02-19T02:18:26.009Z,966.7
2016-02-19T02:19:26.012Z,966.7
2016-02-19T02:20:26.014Z,966.74
2016-02-19T02:21:26.001Z,966.73
2016-02-19T02:22:26.004Z,966.74
2016-02-19T02:23:26.007Z,966.74
2016-02-19T02:24:26.009Z,966.74
2016-02-19T02:25:26.011Z,966.77
2016-02-19T02:26:25.998Z,966.74
2016-02-19T02:27:26.001Z,966.79
2016-02-19T02:28:26.004Z,966.79
2016-02-19T02:29:26.007Z,966.78
2016-02-19T02:30:25.994Z,966.78
2016-02-19T02:31:25.996Z,966.77
2016-02-19T02:32:26.000Z,966.78
2016-02-19T02:33:26.002Z,966.84
2016-02-19T02:34:25.988Z,966.78
2016-02-19T02:35:25.992Z,966.83
2016-02-19T02:36:25.994Z,966.8
2016-02-19T02:37:26.013Z,966.84
2016-02-19T02:38:25.984Z,966.82
2016-02-19T02:39:25.987Z,966.85
2016-02-19T02:40:25.990Z,966.86
2016-02-19T02:41:25.992Z,966.86
2016-02-19T02:42:25.980Z,966.81
2016-02-19T02:43:26.054Z,966.84
2016-02-19T02:44:25.989Z,966.86
2016-02-19T02:45:25.973Z,966.83
2016-02-19T02:46:25.984Z,966.83
2016-02-19T02:47:25.971Z,966.85
2016-02-19T02:48:25.973Z,966.82
2016-02-19T02:49:25.976Z,966.89
2016-02-19T02:50:25.979Z,966.89
2016-02-19T02:51:25.967Z,966.83
2016-02-19T02:52:25.969Z,966.88
2016-02-19T02:53:25.972Z,966.89
2016-02-19T02:54:25.975Z,966.87
2016-02-19T02:55:25.971Z,966.9
2016-02-19T02:56:25.973Z,966.89
2016-02-19T02:57:25.960Z,966.88
2016-02-19T02:58:25.962Z,966.91
2016-02-19T02:59:25.965Z,966.91
2016-02-19T03:00:25.967Z,966.93
2016-02-19T03:01:25.971Z,966.93
2016-02-19T03:02:25.958Z,966.88
2016-02-19T03:03:25.961Z,966.91
2016-02-19T03:04:25.963Z,966.92
2016-02-19T03:05:25.966Z,966.93
2016-02-19T03:06:25.953Z,966.95
2016-02-19T03:07:25.956Z,966.98
2016-02-19T03:08:25.959Z,966.99
2016-02-19T03:09:25.961Z,967.04
2016-02-19T03:10:25.963Z,966.99
2016-02-19T03:11:25.951Z,967.04
2016-02-19T03:12:25.954Z,967.05
2016-02-19T03:13:25.956Z,967.01
2016-02-19T03:14:25.959Z,967.01
2016-02-19T03:15:25.946Z,967.02
2016-02-19T03:16:25.948Z,967.05
2016-02-19T03:17:25.952Z,967.05
2016-02-19T03:18:25.954Z,967.07
2016-02-19T03:19:25.957Z,967.1
2016-02-19T03:20:25.943Z,967.12
2016-02-19T03:21:25.946Z,967.12
2016-02-19T03:22:25.949Z,967.13
2016-02-19T03:23:25.951Z,967.18
2016-02-19T03:24:25.939Z,967.18
2016-02-19T03:25:25.957Z,967.23
2016-02-19T03:26:25.944Z,967.22
2016-02-19T03:27:25.932Z,967.27
2016-02-19T03:28:25.934Z,967.26
2016-02-19T03:29:25.936Z,967.27
2016-02-19T03:30:25.939Z,967.27
2016-02-19T03:31:25.942Z,967.28
2016-02-19T03:32:25.945Z,967.33
2016-02-19T03:33:25.931Z,967.33
2016-02-19T03:34:25.934Z,967.37
2016-02-19T03:35:25.937Z,967.35
2016-02-19T03:36:25.939Z,967.36
2016-02-19T03:37:25.928Z,967.36
2016-02-19T03:38:25.930Z,967.35
2016-02-19T03:39:25.933Z,967.35
2016-02-19T03:40:25.935Z,967.36
2016-02-19T03:41:25.922Z,967.32
2016-02-19T03:42:25.924Z,967.36
2016-02-19T03:43:25.927Z,967.33
2016-02-19T03:44:25.930Z,967.33
2016-02-19T03:45:25.932Z,967.33
2016-02-19T03:46:25.921Z,967.32
2016-02-19T03:47:25.923Z,967.33
2016-02-19T03:48:25.926Z,967.32
2016-02-19T03:49:25.928Z,967.31
2016-02-19T03:50:25.915Z,967.28
2016-02-19T03:51:25.918Z,967.26
2016-02-19T03:52:25.920Z,967.27
2016-02-19T03:53:25.923Z,967.23
2016-02-19T03:54:25.910Z,967.24
2016-02-19T03:55:25.928Z,967.27
2016-02-19T03:56:25.916Z,967.28
2016-02-19T03:57:25.918Z,967.34
2016-02-19T03:58:25.921Z,967.32
2016-02-19T03:59:25.908Z,967.33
2016-02-19T04:00:25.911Z,967.37
2016-02-19T04:01:25.914Z,967.37
2016-02-19T04:02:25.916Z,967.37
2016-02-19T04:03:25.919Z,967.39
2016-02-19T04:04:25.906Z,967.4
2016-02-19T04:05:25.908Z,967.39
2016-02-19T04:06:25.911Z,967.37
2016-02-19T04:07:25.914Z,967.37
2016-02-19T04:08:25.916Z,967.38
2016-02-19T04:09:25.903Z,967.37
2016-02-19T04:10:25.906Z,967.4
2016-02-19T04:11:25.908Z,967.37
2016-02-19T04:12:25.911Z,967.39
2016-02-19T04:13:25.899Z,967.42
2016-02-19T04:14:25.902Z,967.4
2016-02-19T04:15:25.909Z,967.39
2016-02-19T04:16:25.896Z,967.42
2016-02-19T04:17:25.899Z,967.45
2016-02-19T04:18:25.901Z,967.45
2016-02-19T04:19:25.904Z,967.47
2016-02-19T04:20:25.891Z,967.44
2016-02-19T04:21:25.893Z,967.46
2016-02-19T04:22:25.896Z,967.47
2016-02-19T04:23:25.899Z,967.53
2016-02-19T04:24:25.902Z,967.5
2016-02-19T04:25:25.889Z,967.52
2016-02-19T04:26:25.892Z,967.51
2016-02-19T04:27:25.894Z,967.5
2016-02-19T04:28:25.897Z,967.48
2016-02-19T04:29:25.899Z,967.48
2016-02-19T04:30:25.903Z,967.47
2016-02-19T04:31:25.889Z,967.49
2016-02-19T04:32:25.892Z,967.54
2016-02-19T04:33:25.895Z,967.56
2016-02-19T04:34:25.897Z,967.52
2016-02-19T04:35:25.885Z,967.55
2016-02-19T04:36:25.888Z,967.54
2016-02-19T04:37:25.890Z,967.55
2016-02-19T04:38:25.893Z,967.53
2016-02-19T04:39:25.895Z,967.56
2016-02-19T04:40:25.883Z,967.59
2016-02-19T04:41:25.885Z,967.57
2016-02-19T04:42:25.888Z,967.57
2016-02-19T04:43:25.891Z,967.6
2016-02-19T04:44:25.877Z,967.64
2016-02-19T04:45:25.880Z,967.69
2016-02-19T04:46:25.883Z,967.64
2016-02-19T04:47:25.885Z,967.72
2016-02-19T04:48:25.873Z,967.7
2016-02-19T04:49:25.875Z,967.7
2016-02-19T04:50:25.878Z,967.7
2016-02-19T04:51:25.881Z,967.71
2016-02-19T04:52:25.868Z,967.75
2016-02-19T04:53:25.871Z,967.7
2016-02-19T04:54:25.873Z,967.72
2016-02-19T04:55:25.875Z,967.71
2016-02-19T04:56:25.879Z,967.7
2016-02-19T04:57:25.865Z,967.72
2016-02-19T04:58:25.868Z,967.7
2016-02-19T04:59:25.870Z,967.74
2016-02-19T05:00:25.873Z,967.73
2016-02-19T05:01:25.876Z,967.76
2016-02-19T05:02:25.863Z,967.76
2016-02-19T05:03:25.867Z,967.78
2016-02-19T05:04:25.869Z,967.78
2016-02-19T05:05:25.871Z,967.81
2016-02-19T05:06:25.875Z,967.77
2016-02-19T05:07:25.861Z,967.77
2016-02-19T05:08:25.864Z,967.79
2016-02-19T05:09:25.866Z,967.78
2016-02-19T05:10:25.869Z,967.77
2016-02-19T05:11:25.857Z,967.79
2016-02-19T05:12:25.859Z,967.8
2016-02-19T05:13:25.863Z,967.79
2016-02-19T05:14:25.865Z,967.81
2016-02-19T05:15:25.867Z,967.79
2016-02-19T05:16:25.855Z,967.75
2016-02-19T05:17:25.857Z,967.75
2016-02-19T05:18:25.860Z,967.75
2016-02-19T05:19:25.862Z,967.79
2016-02-19T05:20:25.865Z,967.79
2016-02-19T05:21:25.837Z,967.82
2016-02-19T05:22:25.824Z,967.77
2016-02-19T05:23:25.811Z,967.84
2016-02-19T05:24:25.798Z,967.84
2016-02-19T05:25:25.769Z,967.89
2016-02-19T05:26:25.766Z,967.87
2016-02-19T05:27:25.763Z,967.88
2016-02-19T05:28:25.759Z,967.91
2016-02-19T05:29:25.757Z,967.92
2016-02-19T05:30:25.754Z,967.94
2016-02-19T05:31:25.738Z,967.94
2016-02-19T05:32:25.739Z,967.96
2016-02-19T05:33:25.740Z,967.97
2016-02-19T05:34:25.741Z,967.99
2016-02-19T05:35:25.741Z,967.99
2016-02-19T05:36:25.727Z,968.03
2016-02-19T05:37:25.729Z,968
2016-02-19T05:38:25.731Z,968.04
2016-02-19T05:39:25.733Z,968.02
2016-02-19T05:40:25.719Z,968.07
2016-02-19T05:41:25.723Z,968.08
2016-02-19T05:42:25.725Z,968.09
2016-02-19T05:43:25.728Z,968.1
2016-02-19T05:44:25.731Z,968.1
2016-02-19T05:45:25.733Z,968.11
2016-02-19T05:46:25.720Z,968.09
2016-02-19T05:47:25.723Z,968.14
2016-02-19T05:48:25.725Z,968.16
2016-02-19T05:49:25.728Z,968.17
2016-02-19T05:50:25.715Z,968.16
2016-02-19T05:51:25.719Z,968.18
2016-02-19T05:52:25.721Z,968.19
2016-02-19T05:53:25.724Z,968.23
2016-02-19T05:54:25.727Z,968.23
2016-02-19T05:55:25.713Z,968.2
2016-02-19T05:56:25.716Z,968.23
2016-02-19T05:57:25.718Z,968.23
2016-02-19T05:58:25.706Z,968.24
2016-02-19T05:59:25.724Z,968.29
2016-02-19T06:00:25.726Z,968.29
2016-02-19T06:01:25.713Z,968.28
2016-02-19T06:02:25.716Z,968.27
2016-02-19T06:03:25.719Z,968.28
2016-02-19T06:04:25.707Z,968.33
2016-02-19T06:05:25.724Z,968.34
2016-02-19T06:06:25.718Z,968.39
2016-02-19T06:07:25.706Z,968.32
2016-02-19T06:08:25.708Z,968.38
2016-02-19T06:09:25.711Z,968.41
2016-02-19T06:10:25.713Z,968.39
2016-02-19T06:11:25.717Z,968.42
2016-02-19T06:12:25.703Z,968.38
2016-02-19T06:13:25.706Z,968.41
2016-02-19T06:14:25.708Z,968.41
2016-02-19T06:15:25.711Z,968.38
2016-02-19T06:16:25.714Z,968.42
2016-02-19T06:17:25.701Z,968.38
2016-02-19T06:18:25.705Z,968.37
2016-02-19T06:19:25.707Z,968.45
2016-02-19T06:20:25.709Z,968.42
2016-02-19T06:21:25.712Z,968.45
2016-02-19T06:22:25.699Z,968.45
2016-02-19T06:23:25.701Z,968.48
2016-02-19T06:24:25.704Z,968.49
2016-02-19T06:25:25.707Z,968.49
2016-02-19T06:26:25.710Z,968.56
2016-02-19T06:27:25.696Z,968.59
2016-02-19T06:28:25.699Z,968.57
2016-02-19T06:29:25.702Z,968.58
2016-02-19T06:30:25.704Z,968.62
2016-02-19T06:31:25.692Z,968.62
2016-02-19T06:32:25.695Z,968.61
2016-02-19T06:33:25.697Z,968.65
2016-02-19T06:34:25.700Z,968.63
2016-02-19T06:35:25.702Z,968.66
2016-02-19T06:36:25.690Z,968.68
2016-02-19T06:37:25.692Z,968.69
2016-02-19T06:38:25.695Z,968.75
2016-02-19T06:39:25.698Z,968.74
2016-02-19T06:40:25.685Z,968.77
2016-02-19T06:41:25.687Z,968.81
2016-02-19T06:42:25.690Z,968.81
2016-02-19T06:43:25.692Z,968.82
2016-02-19T06:46:01.029Z,968.87
2016-02-19T06:47:01.033Z,968.86
2016-02-19T06:48:01.035Z,968.87
2016-02-19T06:49:01.022Z,968.92
2016-02-19T06:50:01.024Z,968.9
2016-02-19T06:51:01.027Z,968.96
2016-02-19T06:52:01.030Z,968.96
2016-02-19T06:53:01.016Z,968.98
2016-02-19T06:54:01.020Z,968.96
2016-02-19T06:55:01.022Z,968.98
2016-02-19T06:56:01.025Z,969.07
2016-02-19T06:57:01.027Z,969.1
2016-02-19T06:58:01.015Z,969.11
2016-02-19T06:59:01.018Z,969.13
2016-02-19T07:00:01.020Z,969.14
2016-02-19T07:01:01.023Z,969.17
2016-02-19T07:02:01.026Z,969.16
2016-02-19T07:03:01.028Z,969.2
2016-02-19T07:04:01.015Z,969.2
2016-02-19T07:05:01.023Z,969.22
2016-02-19T07:06:01.026Z,969.2
2016-02-19T07:07:01.028Z,969.22
2016-02-19T07:08:01.015Z,969.23
2016-02-19T07:09:01.018Z,969.27
2016-02-19T07:10:01.020Z,969.27
2016-02-19T07:11:01.008Z,969.25
2016-02-19T07:12:01.011Z,969.3
2016-02-19T07:13:01.013Z,969.3
2016-02-19T07:14:01.016Z,969.29
2016-02-19T07:15:01.018Z,969.29
2016-02-19T07:16:01.022Z,969.3
2016-02-19T07:17:01.008Z,969.33
2016-02-19T07:18:01.010Z,969.3
2016-02-19T07:19:01.013Z,969.31
2016-02-19T07:20:01.016Z,969.33
2016-02-19T07:21:01.019Z,969.32
2016-02-19T07:22:01.022Z,969.35
2016-02-19T07:23:01.009Z,969.36
2016-02-19T07:24:01.011Z,969.35
2016-02-19T07:25:01.013Z,969.41
2016-02-19T07:26:01.033Z,969.38
2016-02-19T07:27:01.004Z,969.4
2016-02-19T07:28:01.007Z,969.41
2016-02-19T07:29:01.009Z,969.44
2016-02-19T07:30:01.012Z,969.46
2016-02-19T07:31:00.999Z,969.44
2016-02-19T07:32:01.001Z,969.45
2016-02-19T07:33:01.005Z,969.45
2016-02-19T07:34:01.007Z,969.46
2016-02-19T07:35:01.009Z,969.48
2016-02-19T07:36:01.012Z,969.48
2016-02-19T07:37:01.000Z,969.48
2016-02-19T07:38:01.003Z,969.53
2016-02-19T07:39:01.005Z,969.57
2016-02-19T07:40:01.008Z,969.57
2016-02-19T07:41:00.995Z,969.55
2016-02-19T07:42:00.997Z,969.58
2016-02-19T07:43:01.000Z,969.55
2016-02-19T07:44:01.003Z,969.55
2016-02-19T07:45:01.005Z,969.54
2016-02-19T07:46:00.992Z,969.59
2016-02-19T07:47:00.995Z,969.6
2016-02-19T07:48:00.998Z,969.62
2016-02-19T07:49:01.000Z,969.61
2016-02-19T07:50:01.002Z,969.66
2016-02-19T07:51:00.991Z,969.61
2016-02-19T07:52:00.993Z,969.68
2016-02-19T07:53:00.996Z,969.66
2016-02-19T07:54:00.999Z,969.68
2016-02-19T07:55:01.001Z,969.64
2016-02-19T07:56:00.988Z,969.68
2016-02-19T07:57:00.991Z,969.68
2016-02-19T07:58:00.994Z,969.72
2016-02-19T07:59:00.996Z,969.72
2016-02-19T08:00:00.999Z,969.75
2016-02-19T08:01:01.001Z,969.72
2016-02-19T08:02:00.988Z,969.73
2016-02-19T08:03:00.991Z,969.76
2016-02-19T08:04:00.993Z,969.76
2016-02-19T08:05:01.002Z,969.78
2016-02-19T08:06:00.989Z,969.82
2016-02-19T08:07:00.992Z,969.79
2016-02-19T08:08:00.994Z,969.76
2016-02-19T08:09:00.997Z,969.78
2016-02-19T08:10:00.999Z,969.8
2016-02-19T08:11:01.002Z,969.79
2016-02-19T08:12:00.989Z,969.81
2016-02-19T08:13:01.008Z,969.83
2016-02-19T08:14:01.010Z,969.83
2016-02-19T08:15:00.997Z,969.87
2016-02-19T08:16:00.984Z,969.92
2016-02-19T08:17:00.987Z,969.9
2016-02-19T08:18:01.021Z,969.89
2016-02-19T08:19:00.991Z,969.91
2016-02-19T08:20:00.995Z,969.95
2016-02-19T08:21:00.982Z,969.92
2016-02-19T08:22:00.985Z,969.91
2016-02-19T08:23:00.988Z,969.95
2016-02-19T08:24:00.990Z,970.02
2016-02-19T08:25:00.993Z,970.02
2016-02-19T08:26:00.980Z,970.06
2016-02-19T08:27:00.982Z,970.03
2016-02-19T08:28:00.985Z,970.04
2016-02-19T08:29:00.987Z,970.05
2016-02-19T08:30:00.991Z,970.08
2016-02-19T08:31:00.993Z,970.07
2016-02-19T08:32:00.981Z,970.09
2016-02-19T08:33:00.984Z,970.15
2016-02-19T08:34:00.986Z,970.12
2016-02-19T08:35:00.989Z,970.13
2016-02-19T08:36:00.992Z,970.1
2016-02-19T08:37:00.979Z,970.18
2016-02-19T08:38:00.981Z,970.14
2016-02-19T08:39:00.983Z,970.17
2016-02-19T08:40:00.986Z,970.19
2016-02-19T08:41:00.973Z,970.17
2016-02-19T08:42:00.975Z,970.21
2016-02-19T08:43:00.979Z,970.23
2016-02-19T08:44:00.997Z,970.23
2016-02-19T08:45:00.984Z,970.25
2016-02-19T08:46:00.986Z,970.25
2016-02-19T08:47:00.989Z,970.27
2016-02-19T08:48:00.977Z,970.27
2016-02-19T08:49:00.980Z,970.32
2016-02-19T08:50:00.982Z,970.33
2016-02-19T08:51:00.985Z,970.34
2016-02-19T08:52:00.971Z,970.35
2016-02-19T08:53:00.991Z,970.39
2016-02-19T08:54:00.977Z,970.43
2016-02-19T08:55:00.980Z,970.38
2016-02-19T08:56:00.982Z,970.44
2016-02-19T08:57:00.985Z,970.48
2016-02-19T08:58:00.988Z,970.49
2016-02-19T08:59:00.974Z,970.52
2016-02-19T09:00:00.977Z,970.51
2016-02-19T09:01:00.980Z,970.55
2016-02-19T09:02:00.982Z,970.53
2016-02-19T09:03:00.970Z,970.56
2016-02-19T09:04:00.973Z,970.56
2016-02-19T09:05:00.976Z,970.58
2016-02-19T09:06:00.978Z,970.59
2016-02-19T09:07:00.981Z,970.57
2016-02-19T09:08:00.984Z,970.62
2016-02-19T09:09:00.970Z,970.6
2016-02-19T09:10:00.973Z,970.63
2016-02-19T09:11:00.976Z,970.61
2016-02-19T09:12:00.979Z,970.66
2016-02-19T09:13:00.981Z,970.69
2016-02-19T09:14:00.984Z,970.68
2016-02-19T09:15:00.971Z,970.74
2016-02-19T09:16:00.974Z,970.73
2016-02-19T09:17:00.976Z,970.71
2016-02-19T09:18:00.980Z,970.74
2016-02-19T09:19:00.982Z,970.77
2016-02-19T09:20:00.984Z,970.75
2016-02-19T09:21:00.971Z,970.78
2016-02-19T09:22:00.974Z,970.78
2016-02-19T09:23:00.977Z,970.78
2016-02-19T09:24:00.980Z,970.83
2016-02-19T09:25:00.982Z,970.82
2016-02-19T09:26:00.969Z,970.81
2016-02-19T09:27:00.971Z,970.87
2016-02-19T09:28:00.975Z,970.82
2016-02-19T09:29:00.977Z,970.84
2016-02-19T09:30:00.979Z,970.86
2016-02-19T09:31:00.967Z,970.88
2016-02-19T09:32:00.970Z,970.85
2016-02-19T09:33:00.973Z,970.9
2016-02-19T09:34:00.976Z,970.86
2016-02-19T09:35:00.978Z,970.87
2016-02-19T09:36:00.981Z,970.88
2016-02-19T09:37:00.983Z,970.85
2016-02-19T09:38:00.971Z,970.86
2016-02-19T09:39:00.973Z,970.88
2016-02-19T09:40:00.975Z,970.92
2016-02-19T09:41:00.978Z,970.93
2016-02-19T09:42:00.981Z,970.93
2016-02-19T09:43:00.983Z,970.93
2016-02-19T09:44:00.971Z,970.96
2016-02-19T09:45:00.973Z,970.95
2016-02-19T09:46:00.975Z,971.01
2016-02-19T09:47:00.978Z,971
2016-02-19T09:48:00.981Z,971.01
2016-02-19T09:49:00.984Z,971.04
2016-02-19T09:50:00.986Z,971.01
2016-02-19T09:51:00.989Z,971.03
2016-02-19T09:52:00.977Z,971.04
2016-02-19T09:53:00.979Z,971.02
2016-02-19T09:54:00.983Z,971.04
2016-02-19T09:55:00.969Z,971.09
2016-02-19T09:56:00.971Z,971.03
2016-02-19T09:57:00.974Z,971.09
2016-02-19T09:58:00.977Z,971.11
2016-02-19T09:59:00.980Z,971.09
2016-02-19T10:00:00.967Z,971.06
2016-02-19T10:01:00.985Z,971.08
2016-02-19T10:02:00.973Z,971.12
2016-02-19T10:03:00.975Z,971.09
2016-02-19T10:04:00.978Z,971.08
2016-02-19T10:05:00.981Z,971.1
2016-02-19T10:06:00.983Z,971.09
2016-02-19T10:07:00.987Z,971.09
2016-02-19T10:08:00.973Z,971.15
2016-02-19T10:09:00.976Z,971.19
2016-02-19T10:10:00.978Z,971.19
2016-02-19T10:11:00.981Z,971.22
2016-02-19T10:12:00.983Z,971.18
2016-02-19T10:13:00.971Z,971.24
2016-02-19T10:14:00.973Z,971.25
2016-02-19T10:15:00.976Z,971.22
2016-02-19T10:16:00.978Z,971.2
2016-02-19T10:17:00.981Z,971.21
2016-02-19T10:18:00.984Z,971.21
2016-02-19T10:19:00.971Z,971.25
2016-02-19T10:20:00.974Z,971.26
2016-02-19T10:21:00.977Z,971.25
2016-02-19T10:22:00.979Z,971.27
2016-02-19T10:23:00.983Z,971.27
2016-02-19T10:24:00.985Z,971.27
2016-02-19T10:25:00.971Z,971.3
2016-02-19T10:26:00.975Z,971.27
2016-02-19T10:27:00.977Z,971.3
2016-02-19T10:28:00.980Z,971.28
2016-02-19T10:29:00.982Z,971.3
2016-02-19T10:30:00.969Z,971.34
2016-02-19T10:31:00.972Z,971.36
2016-02-19T10:32:00.975Z,971.35
2016-02-19T10:33:00.978Z,971.34
2016-02-19T10:34:00.980Z,971.39
2016-02-19T10:35:00.982Z,971.36
2016-02-19T10:36:00.985Z,971.41
2016-02-19T10:37:00.973Z,971.4
2016-02-19T10:38:00.975Z,971.37
2016-02-19T10:39:00.978Z,971.4
2016-02-19T10:40:00.981Z,971.42
2016-02-19T10:41:00.983Z,971.43
2016-02-19T10:42:00.971Z,971.42
2016-02-19T10:43:00.973Z,971.42
2016-02-19T10:44:00.975Z,971.42
2016-02-19T10:45:00.979Z,971.44
2016-02-19T10:46:00.981Z,971.42
2016-02-19T10:47:00.984Z,971.42
2016-02-19T10:48:00.986Z,971.4
2016-02-19T10:49:00.974Z,971.47
2016-02-19T10:50:00.977Z,971.42
2016-02-19T10:51:00.980Z,971.5
2016-02-19T10:52:00.983Z,971.45
2016-02-19T10:53:00.985Z,971.43
2016-02-19T10:54:00.988Z,971.45
2016-02-19T10:55:00.975Z,971.46
2016-02-19T10:56:00.993Z,971.47
2016-02-19T10:57:00.979Z,971.49
2016-02-19T10:58:00.982Z,971.48
2016-02-19T10:59:00.985Z,971.54
2016-02-19T11:00:00.988Z,971.5
2016-02-19T11:01:00.975Z,971.5
2016-02-19T11:02:00.993Z,971.43
2016-02-19T11:03:00.979Z,971.47
2016-02-19T11:04:00.983Z,971.47
2016-02-19T11:05:00.985Z,971.5
2016-02-19T11:06:00.987Z,971.5
2016-02-19T11:07:00.991Z,971.53
2016-02-19T11:08:00.978Z,971.55
2016-02-19T11:09:00.981Z,971.54
2016-02-19T11:10:00.984Z,971.5
2016-02-19T11:11:00.986Z,971.54
2016-02-19T11:12:00.989Z,971.56
2016-02-19T11:13:00.992Z,971.53
2016-02-19T11:14:00.978Z,971.53
2016-02-19T11:15:00.981Z,971.52
2016-02-19T11:16:00.984Z,971.55
2016-02-19T11:17:00.987Z,971.5
2016-02-19T11:18:00.989Z,971.47
2016-02-19T11:19:00.992Z,971.47
2016-02-19T11:20:00.995Z,971.46
2016-02-19T11:21:00.981Z,971.46
2016-02-19T11:22:00.984Z,971.49
2016-02-19T11:23:00.986Z,971.47
2016-02-19T11:24:00.989Z,971.49
2016-02-19T11:25:00.992Z,971.45
2016-02-19T11:26:00.995Z,971.44
2016-02-19T11:27:00.982Z,971.44
2016-02-19T11:28:00.985Z,971.42
2016-02-19T11:29:00.988Z,971.47
2016-02-19T11:30:00.990Z,971.48
2016-02-19T11:31:00.993Z,971.46
2016-02-19T11:32:00.996Z,971.46
2016-02-19T11:33:00.998Z,971.5
2016-02-19T11:34:00.985Z,971.45
2016-02-19T11:35:01.082Z,971.46
2016-02-19T11:36:00.990Z,971.51
2016-02-19T11:37:00.994Z,971.5
2016-02-19T11:38:00.996Z,971.53
2016-02-19T11:39:00.983Z,971.51
2016-02-19T11:40:00.987Z,971.5
2016-02-19T11:41:01.004Z,971.53
2016-02-19T11:42:00.991Z,971.52
2016-02-19T11:43:00.994Z,971.59
2016-02-19T11:44:00.997Z,971.5
2016-02-19T11:45:00.999Z,971.52
2016-02-19T11:46:01.003Z,971.49
2016-02-19T11:47:01.005Z,971.47
2016-02-19T11:48:00.991Z,971.48
2016-02-19T11:49:00.995Z,971.44
2016-02-19T11:50:00.997Z,971.44
2016-02-19T11:51:00.999Z,971.41
2016-02-19T11:52:01.002Z,971.4
2016-02-19T11:53:01.005Z,971.37
2016-02-19T11:54:00.992Z,971.41
2016-02-19T11:55:00.995Z,971.43
2016-02-19T11:56:00.997Z,971.43
2016-02-19T11:57:01.000Z,971.42
2016-02-19T11:58:01.003Z,971.46
2016-02-19T11:59:01.005Z,971.43
2016-02-19T12:00:00.993Z,971.45
2016-02-19T12:01:00.996Z,971.43
2016-02-19T12:02:00.998Z,971.46
2016-02-19T12:03:01.002Z,971.46
2016-02-19T12:04:01.004Z,971.47
2016-02-19T12:05:01.007Z,971.49
2016-02-19T12:06:00.994Z,971.52
2016-02-19T12:07:00.996Z,971.49
2016-02-19T12:08:00.999Z,971.55
2016-02-19T12:09:01.001Z,971.49
2016-02-19T12:10:01.004Z,971.5
2016-02-19T12:11:01.006Z,971.53
2016-02-19T12:12:01.010Z,971.5
2016-02-19T12:13:00.996Z,971.51
2016-02-19T12:14:00.998Z,971.55
2016-02-19T12:15:01.018Z,971.57
2016-02-19T12:16:01.004Z,971.54
2016-02-19T12:17:01.006Z,971.53
2016-02-19T12:18:01.010Z,971.53
2016-02-19T12:19:01.012Z,971.53
2016-02-19T12:20:01.015Z,971.52
2016-02-19T12:21:01.003Z,971.53
2016-02-19T12:22:01.005Z,971.53
2016-02-19T12:23:01.008Z,971.52
2016-02-19T12:24:01.010Z,971.51
2016-02-19T12:25:01.013Z,971.55
2016-02-19T12:26:01.015Z,971.49
2016-02-19T12:27:01.002Z,971.51
2016-02-19T12:28:01.021Z,971.54
2016-02-19T12:29:01.008Z,971.52
2016-02-19T12:30:01.011Z,971.54
2016-02-19T12:31:01.013Z,971.53
2016-02-19T12:32:01.016Z,971.56